createdAt,value
2018-09-22T00:01:57.512Z,3.10
2018-09-22T00:04:25.696Z,2.47
2018-09-22T00:06:53.885Z,3.03
2018-09-22T00:09:22.084Z,2.40
2018-09-22T00:11:51.052Z,2.03
2018-09-22T00:14:19.228Z,2.50
2018-09-22T00:16:47.429Z,2.73
2018-09-22T00:19:15.599Z,2.17
2018-09-22T00:21:43.775Z,2.80
2018-09-22T00:24:12.018Z,3.90
2018-09-22T00:26:40.188Z,2.03
2018-09-22T00:29:08.505Z,3.00
2018-09-22T00:31:36.986Z,2.73
2018-09-22T00:34:05.257Z,2.90
2018-09-22T00:36:33.457Z,3.50
2018-09-22T00:39:01.664Z,2.70
2018-09-22T00:41:29.924Z,2.80
2018-09-22T00:43:58.117Z,2.70
2018-09-22T00:46:26.333Z,2.03
2018-09-22T00:48:54.545Z,3.03
2018-09-22T00:51:22.692Z,2.07
2018-09-22T00:53:51.015Z,2.67
2018-09-22T00:56:19.203Z,2.63
2018-09-22T00:58:47.366Z,2.23
2018-09-22T01:01:15.516Z,2.60
2018-09-22T01:03:43.756Z,3.10
2018-09-22T01:06:12.009Z,2.30
2018-09-22T01:08:40.290Z,3.90
2018-09-22T01:11:08.520Z,3.10
2018-09-22T01:13:36.664Z,4.60
2018-09-22T01:16:04.927Z,3.00
2018-09-22T01:18:33.101Z,2.93
2018-09-22T01:21:01.272Z,3.33
2018-09-22T01:23:29.456Z,3.33
2018-09-22T01:25:57.643Z,3.00
2018-09-22T01:28:25.860Z,3.53
2018-09-22T01:30:54.053Z,3.30
2018-09-22T01:33:22.238Z,3.27
2018-09-22T01:35:51.124Z,3.30
2018-09-22T01:38:19.345Z,3.77
2018-09-22T01:40:47.476Z,2.80
2018-09-22T01:43:15.669Z,2.97
2018-09-22T01:45:43.833Z,4.37
2018-09-22T01:48:11.996Z,3.53
2018-09-22T01:50:40.208Z,3.00
2018-09-22T01:53:08.798Z,1.93
2018-09-22T01:55:37.095Z,3.00
2018-09-22T01:58:05.348Z,2.27
2018-09-22T02:00:33.549Z,3.63
2018-09-22T02:03:01.699Z,3.33
2018-09-22T02:05:29.939Z,3.00
2018-09-22T02:07:58.087Z,3.47
2018-09-22T02:10:26.300Z,3.33
2018-09-22T02:12:54.489Z,3.37
2018-09-22T02:15:22.652Z,2.77
2018-09-22T02:17:51.469Z,3.30
2018-09-22T02:20:19.621Z,3.20
2018-09-22T02:22:47.995Z,3.17
2018-09-22T02:25:16.210Z,3.07
2018-09-22T02:27:44.360Z,3.50
2018-09-22T02:30:12.570Z,2.97
2018-09-22T02:32:40.739Z,3.40
2018-09-22T02:35:08.903Z,2.50
2018-09-22T02:37:37.144Z,2.57
2018-09-22T02:40:05.345Z,3.53
2018-09-22T02:42:33.556Z,2.63
2018-09-22T02:45:01.741Z,3.00
2018-09-22T02:47:29.924Z,2.57
2018-09-22T02:49:58.080Z,3.93
2018-09-22T02:52:26.260Z,3.40
2018-09-22T02:54:54.464Z,3.60
2018-09-22T02:57:22.628Z,2.97
2018-09-22T02:59:51.301Z,2.73
2018-09-22T03:02:19.489Z,3.23
2018-09-22T03:04:47.674Z,4.03
2018-09-22T03:07:15.833Z,3.73
2018-09-22T03:09:44.154Z,3.57
2018-09-22T03:12:12.338Z,2.73
2018-09-22T03:14:40.530Z,2.60
2018-09-22T03:17:08.717Z,2.50
2018-09-22T03:19:36.905Z,2.33
2018-09-22T03:22:05.117Z,3.17
2018-09-22T03:24:33.265Z,3.40
2018-09-22T03:27:01.446Z,1.80
2018-09-22T03:29:29.645Z,2.40
2018-09-22T03:31:57.885Z,2.23
2018-09-22T03:34:26.045Z,3.10
2018-09-22T03:36:54.220Z,2.27
2018-09-22T03:39:22.383Z,3.37
2018-09-22T03:41:51.279Z,2.30
2018-09-22T03:44:19.468Z,3.23
2018-09-22T03:46:47.632Z,2.40
2018-09-22T03:49:15.845Z,2.07
2018-09-22T03:51:44.060Z,2.80
2018-09-22T03:54:12.274Z,4.13
2018-09-22T03:56:40.458Z,2.77
2018-09-22T03:59:08.632Z,2.47
2018-09-22T04:01:36.838Z,2.63
2018-09-22T04:04:05.005Z,3.00
2018-09-22T04:06:33.163Z,2.63
2018-09-22T04:09:01.348Z,3.30
2018-09-22T04:11:29.587Z,1.90
2018-09-22T04:13:57.765Z,2.57
2018-09-22T04:16:25.953Z,3.00
2018-09-22T04:18:54.116Z,2.30
2018-09-22T04:21:22.349Z,2.77
2018-09-22T04:23:51.456Z,3.00
2018-09-22T04:26:19.616Z,3.53
2018-09-22T04:28:47.785Z,2.87
2018-09-22T04:31:16.001Z,2.97
2018-09-22T04:33:44.177Z,2.37
2018-09-22T04:36:12.385Z,3.80
2018-09-22T04:38:40.568Z,4.40
2018-09-22T04:41:08.761Z,2.30
2018-09-22T04:43:36.953Z,2.40
2018-09-22T04:46:05.119Z,2.17
2018-09-22T04:48:33.309Z,2.67
2018-09-22T04:51:01.506Z,3.43
2018-09-22T04:53:29.672Z,3.40
2018-09-22T04:55:57.913Z,3.30
2018-09-22T04:58:26.084Z,2.50
2018-09-22T05:00:54.256Z,2.03
2018-09-22T05:03:22.464Z,2.00
2018-09-22T05:05:51.436Z,2.20
2018-09-22T05:08:19.596Z,1.97
2018-09-22T05:10:47.813Z,3.00
2018-09-22T05:13:16.213Z,2.20
2018-09-22T05:15:44.412Z,1.80
2018-09-22T05:18:12.777Z,3.40
2018-09-22T05:20:40.947Z,2.97
2018-09-22T05:23:10.090Z,2.50
2018-09-22T05:25:39.960Z,2.27
2018-09-22T05:28:09.465Z,3.40
2018-09-22T05:30:37.693Z,3.10
2018-09-22T05:33:05.889Z,2.30
2018-09-22T05:35:34.041Z,2.77
2018-09-22T05:38:02.212Z,2.90
2018-09-22T05:40:30.417Z,2.60
2018-09-22T05:42:58.623Z,3.27
2018-09-22T05:45:26.793Z,3.03
2018-09-22T05:47:55.378Z,2.10
2018-09-22T05:50:23.761Z,2.50
2018-09-22T05:52:52.015Z,3.10
2018-09-22T05:55:20.213Z,2.20
2018-09-22T05:57:48.448Z,2.43
2018-09-22T06:00:17.085Z,2.60
2018-09-22T06:02:45.264Z,2.80
2018-09-22T06:05:13.431Z,2.50
2018-09-22T06:07:41.656Z,1.70
2018-09-22T06:10:09.828Z,3.50
2018-09-22T06:12:38.074Z,2.10
2018-09-22T06:15:06.752Z,2.40
2018-09-22T06:17:34.894Z,1.83
2018-09-22T06:20:03.100Z,2.60
2018-09-22T06:22:31.368Z,3.00
2018-09-22T06:24:59.543Z,3.60
2018-09-22T06:27:27.733Z,3.43
2018-09-22T06:29:55.937Z,4.37
2018-09-22T06:32:24.136Z,2.70
2018-09-22T06:34:52.284Z,3.03
2018-09-22T06:37:20.553Z,4.00
2018-09-22T06:39:48.720Z,3.60
2018-09-22T06:42:16.901Z,2.73
2018-09-22T06:44:45.757Z,3.30
2018-09-22T06:47:13.916Z,3.77
2018-09-22T06:49:42.093Z,1.73
2018-09-22T06:52:10.310Z,2.93
2018-09-22T06:54:38.476Z,2.77
2018-09-22T06:57:07.536Z,2.47
2018-09-22T06:59:35.767Z,3.33
2018-09-22T07:02:03.952Z,2.20
2018-09-22T07:04:32.130Z,2.40
2018-09-22T07:07:00.346Z,3.13
2018-09-22T07:09:28.545Z,1.90
2018-09-22T07:11:56.752Z,2.73
2018-09-22T07:14:24.974Z,2.40
2018-09-22T07:16:53.172Z,2.60
2018-09-22T07:19:21.404Z,2.70
2018-09-22T07:21:55.097Z,2.67
2018-09-22T07:24:23.405Z,1.83
2018-09-22T07:26:51.613Z,2.27
2018-09-22T07:29:19.829Z,2.20
2018-09-22T07:31:48.437Z,2.10
2018-09-22T07:34:16.622Z,2.00
2018-09-22T07:36:44.800Z,3.50
2018-09-22T07:39:13.363Z,2.73
2018-09-22T07:41:41.883Z,3.03
2018-09-22T07:44:11.090Z,1.77
2018-09-22T07:46:39.270Z,2.30
2018-09-22T07:49:07.516Z,2.57
2018-09-22T07:51:35.684Z,2.90
2018-09-22T07:54:03.877Z,1.77
2018-09-22T07:56:32.353Z,2.37
2018-09-22T07:59:00.565Z,3.27
2018-09-22T08:01:28.760Z,3.73
2018-09-22T08:03:57.040Z,2.00
2018-09-22T08:06:25.251Z,2.40
2018-09-22T08:08:53.753Z,2.03
2018-09-22T08:11:22.156Z,3.37
2018-09-22T08:13:51.166Z,2.83
2018-09-22T08:16:19.680Z,1.73
2018-09-22T08:18:48.191Z,2.40
2018-09-22T08:21:16.417Z,2.40
2018-09-22T08:23:44.567Z,1.70
2018-09-22T08:26:12.780Z,2.20
2018-09-22T08:28:40.961Z,2.60
2018-09-22T08:31:09.902Z,2.67
2018-09-22T08:33:38.285Z,2.03
2018-09-22T08:36:07.366Z,2.00
2018-09-22T08:38:37.844Z,2.80
2018-09-22T08:41:11.065Z,1.77
2018-09-22T08:43:39.264Z,1.80
2018-09-22T08:46:07.469Z,2.27
2018-09-22T08:48:37.173Z,2.80
2018-09-22T08:51:05.452Z,1.90
2018-09-22T08:53:34.089Z,3.67
2018-09-22T08:56:02.283Z,2.37
2018-09-22T08:58:30.613Z,2.00
2018-09-22T09:01:07.183Z,2.20
2018-09-22T09:03:35.822Z,5.17
2018-09-22T09:06:04.344Z,3.30
2018-09-22T09:08:32.937Z,2.30
2018-09-22T09:11:01.127Z,2.00
2018-09-22T09:13:29.420Z,2.47
2018-09-22T09:15:58.601Z,2.03
2018-09-22T09:18:26.780Z,2.30
2018-09-22T09:21:10.787Z,2.13
2018-09-22T09:23:39.081Z,1.53
2018-09-22T09:26:07.285Z,2.50
2018-09-22T09:28:35.502Z,2.17
2018-09-22T09:31:04.516Z,2.17
2018-09-22T09:33:32.704Z,2.07
2018-09-22T09:36:00.892Z,2.00
2018-09-22T09:38:29.956Z,1.87
2018-09-22T09:40:58.088Z,1.53
2018-09-22T09:43:26.313Z,2.27
2018-09-22T09:45:54.474Z,1.63
2018-09-22T09:48:22.668Z,2.03
2018-09-22T09:50:50.860Z,1.40
2018-09-22T09:53:19.503Z,2.37
2018-09-22T09:55:47.669Z,1.47
2018-09-22T09:58:18.594Z,1.20
2018-09-22T10:00:47.090Z,2.20
2018-09-22T10:03:19.276Z,2.07
2018-09-22T10:05:51.263Z,2.30
2018-09-22T10:08:20.513Z,1.50
2018-09-22T10:10:48.733Z,2.20
2018-09-22T10:13:23.758Z,1.30
2018-09-22T10:15:51.909Z,2.17
2018-09-22T10:18:20.287Z,2.70
2018-09-22T10:20:48.468Z,2.33
2018-09-22T10:23:16.732Z,3.80
2018-09-22T10:25:44.897Z,2.27
2018-09-22T10:28:13.289Z,2.50
2018-09-22T10:30:42.579Z,2.50
2018-09-22T10:33:10.746Z,2.87
2018-09-22T10:35:38.945Z,1.97
2018-09-22T10:38:07.162Z,2.33
2018-09-22T10:40:35.376Z,2.70
2018-09-22T10:43:03.541Z,1.90
2018-09-22T10:45:31.709Z,2.03
2018-09-22T10:47:59.913Z,1.63
2018-09-22T10:50:28.124Z,1.90
2018-09-22T10:52:56.405Z,2.50
2018-09-22T10:55:24.570Z,2.20
2018-09-22T10:57:52.739Z,2.17
2018-09-22T11:00:20.955Z,2.27
2018-09-22T11:02:49.132Z,6.60
2018-09-22T11:05:17.368Z,13.87
2018-09-22T11:07:45.593Z,2.10
2018-09-22T11:10:13.778Z,1.73
2018-09-22T11:12:41.990Z,2.20
2018-09-22T11:15:10.149Z,2.23
2018-09-22T11:17:38.335Z,1.90
2018-09-22T11:20:06.890Z,1.00
2018-09-22T11:22:35.162Z,2.50
2018-09-22T11:25:03.384Z,2.80
2018-09-22T11:27:31.623Z,2.80
2018-09-22T11:29:59.780Z,1.60
2018-09-22T11:32:27.984Z,2.00
2018-09-22T11:34:56.153Z,1.90
2018-09-22T11:37:24.332Z,1.83
2018-09-22T11:39:52.557Z,1.67
2018-09-22T11:42:20.810Z,0.90
2018-09-22T11:44:49.128Z,1.50
2018-09-22T11:47:17.330Z,2.00
2018-09-22T11:49:45.504Z,1.23
2018-09-22T11:52:13.700Z,1.63
2018-09-22T11:54:41.901Z,1.57
2018-09-22T11:57:10.079Z,1.90
2018-09-22T11:59:38.276Z,1.77
2018-09-22T12:02:06.484Z,1.37
2018-09-22T12:04:34.633Z,2.83
2018-09-22T12:07:02.808Z,3.30
2018-09-22T12:09:30.998Z,1.57
2018-09-22T12:11:59.187Z,1.93
2018-09-22T12:14:27.440Z,2.10
2018-09-22T12:16:55.685Z,1.90
2018-09-22T12:19:23.852Z,1.20
2018-09-22T12:21:52.016Z,1.60
2018-09-22T12:24:21.640Z,1.93
2018-09-22T12:26:53.649Z,2.90
2018-09-22T12:29:22.855Z,2.70
2018-09-22T12:31:51.774Z,1.80
2018-09-22T12:34:20.426Z,1.17
2018-09-22T12:36:49.580Z,2.80
2018-09-22T12:39:19.704Z,1.63
2018-09-22T12:41:48.959Z,1.80
2018-09-22T12:44:18.803Z,1.50
2018-09-22T12:46:47.469Z,2.97
2018-09-22T12:49:16.205Z,1.83
2018-09-22T12:51:46.736Z,1.93
2018-09-22T12:54:16.804Z,2.70
2018-09-22T12:56:45.890Z,1.70
2018-09-22T12:59:14.172Z,1.80
2018-09-22T13:01:44.193Z,1.90
2018-09-22T13:04:14.415Z,2.13
2018-09-22T13:06:43.592Z,2.20
2018-09-22T13:09:12.171Z,2.20
2018-09-22T13:11:41.050Z,3.10
2018-09-22T13:14:09.314Z,1.90
2018-09-22T13:16:37.591Z,1.70
2018-09-22T13:19:05.869Z,1.67
2018-09-22T13:21:34.014Z,2.07
2018-09-22T13:24:02.255Z,2.20
2018-09-22T13:26:31.381Z,1.87
2018-09-22T13:28:59.562Z,3.03
2018-09-22T13:31:27.854Z,1.47
2018-09-22T13:33:56.104Z,1.70
2018-09-22T13:36:24.304Z,3.17
2018-09-22T13:38:52.576Z,2.27
2018-09-22T13:41:20.771Z,1.90
2018-09-22T13:43:49.005Z,1.63
2018-09-22T13:46:17.216Z,3.03
2018-09-22T13:48:45.387Z,2.17
2018-09-22T13:51:13.873Z,3.43
2018-09-22T13:53:42.013Z,2.53
2018-09-22T13:56:10.225Z,2.80
2018-09-22T13:58:38.387Z,2.57
2018-09-22T14:01:06.552Z,2.13
2018-09-22T14:03:34.707Z,2.90
2018-09-22T14:06:02.938Z,1.93
2018-09-22T14:08:31.088Z,1.43
2018-09-22T14:10:59.303Z,1.30
2018-09-22T14:13:27.471Z,2.03
2018-09-22T14:15:55.604Z,1.70
2018-09-22T14:18:23.832Z,2.43
2018-09-22T14:20:52.013Z,2.13
2018-09-22T14:23:20.695Z,3.07
2018-09-22T14:25:49.204Z,2.77
2018-09-22T14:28:17.406Z,2.67
2018-09-22T14:30:45.545Z,3.20
2018-09-22T14:33:13.820Z,1.90
2018-09-22T14:35:42.039Z,1.60
2018-09-22T14:38:10.198Z,3.70
2018-09-22T14:40:40.022Z,2.70
2018-09-22T14:43:08.257Z,1.20
2018-09-22T14:45:36.404Z,1.50
2018-09-22T14:48:04.659Z,1.80
2018-09-22T14:50:32.817Z,1.70
2018-09-22T14:53:01.037Z,1.20
2018-09-22T14:55:29.338Z,1.73
2018-09-22T14:57:57.498Z,1.83
2018-09-22T15:00:25.709Z,1.63
2018-09-22T15:02:53.988Z,2.00
2018-09-22T15:05:22.176Z,1.30
2018-09-22T15:07:50.377Z,1.33
2018-09-22T15:10:18.677Z,1.10
2018-09-22T15:12:46.861Z,1.70
2018-09-22T15:15:15.075Z,2.00
2018-09-22T15:17:43.276Z,1.53
2018-09-22T15:20:11.548Z,2.13
2018-09-22T15:22:39.668Z,2.00
2018-09-22T15:25:07.824Z,1.10
2018-09-22T15:27:36.012Z,2.03
2018-09-22T15:30:04.214Z,1.50
2018-09-22T15:32:32.711Z,1.80
2018-09-22T15:35:00.925Z,1.50
2018-09-22T15:37:29.085Z,1.60
2018-09-22T15:39:57.281Z,3.50
2018-09-22T15:42:25.534Z,1.63
2018-09-22T15:44:53.765Z,2.00
2018-09-22T15:47:21.929Z,1.63
2018-09-22T15:49:50.097Z,1.90
2018-09-22T15:52:18.347Z,1.87
2018-09-22T15:54:46.466Z,1.90
2018-09-22T15:57:14.714Z,1.93
2018-09-22T15:59:43.517Z,2.07
2018-09-22T16:02:12.025Z,3.10
2018-09-22T16:04:40.273Z,1.73
2018-09-22T16:07:09.259Z,1.53
2018-09-22T16:09:37.693Z,2.03
2018-09-22T16:12:06.630Z,1.83
2018-09-22T16:14:38.008Z,1.80
2018-09-22T16:17:06.738Z,2.13
2018-09-22T16:19:35.276Z,3.00
2018-09-22T16:22:03.512Z,2.03
2018-09-22T16:24:34.730Z,4.03
2018-09-22T16:27:03.276Z,2.70
2018-09-22T16:29:32.425Z,2.17
2018-09-22T16:32:00.713Z,1.70
2018-09-22T16:34:28.978Z,2.20
2018-09-22T16:36:57.233Z,1.70
2018-09-22T16:39:25.803Z,1.97
2018-09-22T16:41:54.190Z,2.47
2018-09-22T16:44:22.434Z,2.33
2018-09-22T16:46:50.688Z,2.57
2018-09-22T16:49:19.318Z,3.03
2018-09-22T16:51:47.505Z,3.13
2018-09-22T16:54:15.685Z,5.60
2018-09-22T16:56:46.469Z,3.00
2018-09-22T16:59:14.823Z,3.33
2018-09-22T17:01:43.036Z,3.30
2018-09-22T17:04:11.349Z,2.57
2018-09-22T17:06:39.510Z,2.10
2018-09-22T17:09:08.738Z,2.33
2018-09-22T17:11:37.991Z,3.40
2018-09-22T17:14:06.279Z,2.67
2018-09-22T17:16:34.491Z,3.10
2018-09-22T17:19:02.678Z,2.30
2018-09-22T17:21:30.860Z,3.17
2018-09-22T17:23:59.032Z,2.93
2018-09-22T17:26:27.299Z,1.90
2018-09-22T17:28:55.564Z,2.67
2018-09-22T17:31:24.192Z,3.30
2018-09-22T17:33:52.571Z,2.93
2018-09-22T17:36:20.910Z,2.37
2018-09-22T17:38:49.079Z,2.70
2018-09-22T17:41:17.258Z,2.37
2018-09-22T17:43:45.610Z,1.97
2018-09-22T17:46:14.197Z,2.57
2018-09-22T17:48:42.387Z,2.37
2018-09-22T17:51:10.551Z,2.30
2018-09-22T17:53:39.065Z,1.63
2018-09-22T17:56:13.901Z,4.73
2018-09-22T17:58:42.676Z,2.10
2018-09-22T18:01:10.848Z,2.73
2018-09-22T18:03:39.271Z,3.00
2018-09-22T18:06:07.876Z,2.77
2018-09-22T18:08:35.989Z,2.47
2018-09-22T18:11:04.297Z,2.40
2018-09-22T18:13:32.471Z,2.30
2018-09-22T18:16:00.702Z,3.50
2018-09-22T18:18:29.214Z,2.70
2018-09-22T18:20:57.607Z,2.70
2018-09-22T18:23:25.847Z,3.93
2018-09-22T18:25:54.128Z,8.17
2018-09-22T18:28:22.303Z,3.03
2018-09-22T18:30:50.780Z,3.43
2018-09-22T18:33:18.958Z,3.37
2018-09-22T18:35:47.196Z,3.03
2018-09-22T18:38:15.497Z,6.50
2018-09-22T18:40:43.678Z,3.70
2018-09-22T18:43:11.863Z,4.10
2018-09-22T18:45:40.041Z,5.47
2018-09-22T18:48:08.240Z,3.77
2018-09-22T18:50:36.394Z,3.00
2018-09-22T18:53:04.776Z,3.13
2018-09-22T18:55:32.985Z,4.03
2018-09-22T18:58:01.126Z,4.03
2018-09-22T19:00:30.301Z,3.70
2018-09-22T19:02:58.465Z,3.40
2018-09-22T19:05:27.405Z,3.37
2018-09-22T19:07:56.325Z,3.60
2018-09-22T19:10:24.533Z,8.17
2018-09-22T19:12:52.934Z,4.73
2018-09-22T19:15:25.531Z,2.43
2018-09-22T19:17:58.273Z,2.70
2018-09-22T19:20:31.878Z,2.83
2018-09-22T19:23:03.457Z,3.40
2018-09-22T19:25:34.262Z,4.37
2018-09-22T19:28:13.610Z,3.07
2018-09-22T19:30:45.662Z,4.10
2018-09-22T19:33:20.644Z,4.53
2018-09-22T19:35:54.083Z,4.67
2018-09-22T19:38:27.004Z,4.60
2018-09-22T19:41:00.613Z,3.23
2018-09-22T19:43:36.040Z,3.90
2018-09-22T19:46:07.997Z,4.47
2018-09-22T19:48:41.229Z,3.97
2018-09-22T19:51:11.493Z,5.13
2018-09-22T19:53:41.253Z,5.03
2018-09-22T19:56:09.479Z,4.20
2018-09-22T19:58:37.768Z,4.90
2018-09-22T20:01:06.341Z,5.00
2018-09-22T20:03:34.480Z,4.83
2018-09-22T20:06:02.640Z,4.83
2018-09-22T20:08:30.828Z,4.70
2018-09-22T20:10:59.085Z,5.17
2018-09-22T20:13:27.318Z,4.23
2018-09-22T20:15:55.437Z,4.80
2018-09-22T20:18:23.605Z,5.40
2018-09-22T20:20:51.809Z,4.40
2018-09-22T20:23:19.961Z,5.10
2018-09-22T20:25:48.170Z,4.87
2018-09-22T20:28:16.350Z,5.07
2018-09-22T20:30:44.605Z,5.43
2018-09-22T20:33:12.823Z,5.30
2018-09-22T20:35:40.950Z,5.60
2018-09-22T20:38:09.133Z,6.80
2018-09-22T20:40:37.379Z,4.87
2018-09-22T20:43:05.567Z,4.13
2018-09-22T20:45:33.758Z,5.20
2018-09-22T20:48:01.973Z,6.00
2018-09-22T20:50:31.723Z,3.97
2018-09-22T20:52:59.893Z,4.87
2018-09-22T20:55:28.138Z,4.47
2018-09-22T20:57:56.341Z,5.53
2018-09-22T21:00:24.520Z,6.27
2018-09-22T21:02:52.738Z,4.97
2018-09-22T21:05:22.653Z,5.93
2018-09-22T21:07:50.895Z,4.80
2018-09-22T21:10:19.114Z,6.37
2018-09-22T21:12:47.325Z,4.87
2018-09-22T21:15:15.514Z,5.37
2018-09-22T21:17:43.868Z,4.80
2018-09-22T21:20:12.118Z,5.87
2018-09-22T21:22:40.341Z,6.67
2018-09-22T21:25:09.592Z,6.67
2018-09-22T21:27:37.768Z,6.10
2018-09-22T21:30:06.456Z,6.20
2018-09-22T21:32:34.612Z,5.83
2018-09-22T21:35:16.360Z,5.67
2018-09-22T21:37:45.128Z,5.73
2018-09-22T21:40:13.655Z,5.70
2018-09-22T21:42:41.865Z,5.97
2018-09-22T21:45:10.215Z,5.87
2018-09-22T21:47:38.562Z,6.33
2018-09-22T21:50:06.737Z,5.13
2018-09-22T21:52:34.957Z,5.30
2018-09-22T21:55:03.153Z,5.50
2018-09-22T21:57:31.353Z,5.27
2018-09-22T21:59:59.565Z,5.20
2018-09-22T22:02:27.914Z,5.90
2018-09-22T22:04:56.075Z,5.60
2018-09-22T22:07:24.236Z,5.10
2018-09-22T22:09:52.404Z,5.90
2018-09-22T22:12:20.540Z,5.80
2018-09-22T22:14:49.328Z,6.30
2018-09-22T22:17:17.725Z,6.20
2018-09-22T22:19:45.867Z,7.03
2018-09-22T22:22:14.600Z,7.23
2018-09-22T22:24:42.804Z,8.37
2018-09-22T22:27:11.021Z,8.50
2018-09-22T22:29:39.228Z,8.43
2018-09-22T22:32:07.368Z,6.67
2018-09-22T22:34:35.621Z,6.90
2018-09-22T22:37:03.820Z,7.73
2018-09-22T22:39:32.755Z,6.83
2018-09-22T22:42:01.297Z,7.40
2018-09-22T22:44:30.085Z,6.73
2018-09-22T22:46:58.390Z,7.23
2018-09-22T22:49:26.833Z,7.20
2018-09-22T22:51:55.386Z,7.90
2018-09-22T22:54:24.051Z,7.67
2018-09-22T22:56:54.021Z,7.17
2018-09-22T22:59:22.806Z,7.13
2018-09-22T23:02:09.876Z,8.23
2018-09-22T23:04:39.681Z,8.80
2018-09-22T23:07:08.424Z,9.30
2018-09-22T23:09:37.098Z,9.13
2018-09-22T23:12:05.428Z,8.90
2018-09-22T23:14:34.164Z,8.07
2018-09-22T23:17:02.540Z,7.70
2018-09-22T23:19:33.118Z,8.43
2018-09-22T23:22:01.276Z,8.53
2018-09-22T23:24:30.279Z,7.83
2018-09-22T23:26:58.963Z,8.07
2018-09-22T23:29:27.657Z,6.43
2018-09-22T23:31:56.192Z,7.53
2018-09-22T23:34:24.360Z,7.13
2018-09-22T23:36:53.355Z,7.53
2018-09-22T23:39:21.955Z,8.70
2018-09-22T23:41:50.529Z,8.43
2018-09-22T23:44:19.337Z,7.67
2018-09-22T23:46:48.098Z,7.60
2018-09-22T23:49:16.822Z,8.10
2018-09-22T23:51:45.332Z,8.30
2018-09-22T23:54:13.791Z,7.87
2018-09-22T23:56:42.745Z,8.80
2018-09-22T23:59:11.367Z,9.63
